Time;durP1;ratioP1;P1;durP2;ratioP2;P2;SDS_P1;SDS_P2;PMS_P1;PMS_P2;Temp;Humidity;BMP_temperature;BMP_pressure;BME280_temperature;BME280_humidity;BME280_pressure;Samples;Min_cycle;Max_cycle;Signal;HPM_P1;HPM_P2
2023/03/04 00:00:06;;;;;;;5.60;2.90;;;6.00;99.90;;;;;;5080656;28;20475;-70
2023/03/04 00:02:34;;;;;;;9.00;3.47;;;6.10;99.90;;;;;;5081236;28;21113;-69
2023/03/04 00:05:05;;;;;;;9.13;3.20;;;6.10;99.90;;;;;;5083047;27;20536;-70
2023/03/04 00:07:33;;;;;;;8.77;3.13;;;6.10;99.90;;;;;;5078886;27;20476;-70
2023/03/04 00:10:01;;;;;;;8.80;3.30;;;6.10;99.90;;;;;;5079237;28;20493;-70
2023/03/04 00:12:29;;;;;;;9.43;3.23;;;6.10;99.90;;;;;;5081529;28;20475;-70
2023/03/04 00:14:56;;;;;;;4.67;2.90;;;6.10;99.90;;;;;;5078073;28;20468;-70
2023/03/04 00:17:24;;;;;;;9.13;3.63;;;6.20;99.90;;;;;;5079476;28;20496;-70
2023/03/04 00:19:52;;;;;;;7.70;4.03;;;6.10;99.90;;;;;;5077579;28;20485;-70
2023/03/04 00:22:22;;;;;;;7.10;3.77;;;6.10;99.90;;;;;;5080640;28;20475;-70
2023/03/04 00:24:50;;;;;;;6.83;3.00;;;6.20;99.90;;;;;;5077474;28;20478;-70
2023/03/04 00:27:18;;;;;;;6.50;3.20;;;6.20;99.90;;;;;;5080948;28;20602;-70
2023/03/04 00:29:45;;;;;;;7.50;2.67;;;6.20;99.90;;;;;;5078158;28;20484;-70
2023/03/04 00:32:15;;;;;;;7.23;3.00;;;6.20;99.90;;;;;;5077609;28;20506;-70
2023/03/04 00:34:43;;;;;;;7.57;2.73;;;6.20;99.90;;;;;;5080103;28;20479;-70
2023/03/04 00:37:11;;;;;;;7.93;2.90;;;6.20;99.90;;;;;;5082093;28;21615;-71
2023/03/04 00:39:40;;;;;;;7.17;2.77;;;6.20;99.90;;;;;;5085252;28;20503;-71
2023/03/04 00:42:08;;;;;;;6.30;2.50;;;6.20;99.90;;;;;;5090390;28;20499;-70
2023/03/04 00:44:36;;;;;;;4.50;2.70;;;6.20;99.90;;;;;;5081804;28;20472;-70
2023/03/04 00:47:04;;;;;;;5.63;3.00;;;6.20;99.90;;;;;;5078678;28;20488;-70
2023/03/04 00:49:32;;;;;;;8.60;2.87;;;6.20;99.90;;;;;;5085293;28;20495;-69
2023/03/04 00:52:00;;;;;;;7.43;2.90;;;6.20;99.90;;;;;;5084566;28;20487;-70
2023/03/04 00:54:28;;;;;;;5.70;2.40;;;6.20;99.90;;;;;;5080388;28;20555;-70
2023/03/04 00:56:57;;;;;;;6.43;3.40;;;6.30;99.90;;;;;;5081716;28;20485;-70
2023/03/04 00:59:25;;;;;;;7.43;2.60;;;6.30;99.90;;;;;;5081180;28;20463;-70
2023/03/04 01:01:53;;;;;;;5.20;2.67;;;6.20;99.90;;;;;;5087814;28;20577;-70
2023/03/04 01:04:21;;;;;;;6.90;2.53;;;6.20;99.90;;;;;;5085786;28;20467;-70
2023/03/04 01:06:49;;;;;;;5.77;2.03;;;6.20;99.90;;;;;;5085462;28;20483;-70
2023/03/04 01:09:17;;;;;;;4.53;1.83;;;6.20;99.90;;;;;;5083399;28;20516;-70
2023/03/04 01:11:45;;;;;;;5.17;2.00;;;6.30;99.90;;;;;;5090459;28;20483;-70
2023/03/04 01:14:14;;;;;;;6.13;1.90;;;6.30;99.90;;;;;;5077145;28;20486;-70
2023/03/04 01:16:42;;;;;;;7.23;1.90;;;6.20;99.90;;;;;;5081622;28;20511;-70
2023/03/04 01:19:10;;;;;;;5.13;2.13;;;6.20;99.90;;;;;;5081814;28;21216;-70
2023/03/04 01:21:38;;;;;;;4.83;1.70;;;6.30;99.90;;;;;;5083312;27;21450;-70
2023/03/04 01:24:06;;;;;;;4.87;1.77;;;6.30;99.90;;;;;;5087597;28;20462;-70
2023/03/04 01:26:34;;;;;;;5.17;1.60;;;6.30;99.90;;;;;;5082596;27;21257;-70
2023/03/04 01:29:02;;;;;;;3.93;1.30;;;6.20;99.90;;;;;;5079872;28;20499;-70
2023/03/04 01:31:32;;;;;;;5.00;1.80;;;6.30;99.90;;;;;;5088636;28;20498;-70
2023/03/04 01:33:59;;;;;;;3.70;1.53;;;6.20;99.90;;;;;;5081526;27;20494;-70
2023/03/04 01:36:27;;;;;;;2.80;1.37;;;6.20;99.90;;;;;;5086315;28;20467;-70
2023/03/04 01:38:56;;;;;;;11.00;2.07;;;6.30;99.90;;;;;;5088075;28;20463;-70
2023/03/04 01:41:26;;;;;;;4.77;1.60;;;6.30;99.90;;;;;;5089767;28;20492;-70
2023/03/04 01:43:55;;;;;;;4.57;1.40;;;6.30;99.90;;;;;;5085059;27;20472;-70
2023/03/04 01:46:24;;;;;;;7.17;1.80;;;6.30;99.90;;;;;;5075311;28;20476;-70
2023/03/04 01:48:53;;;;;;;6.00;1.70;;;6.30;99.90;;;;;;5092478;28;20491;-70
2023/03/04 01:51:22;;;;;;;6.73;1.50;;;6.30;99.90;;;;;;5083815;27;21049;-70
2023/03/04 01:53:53;;;;;;;4.90;1.40;;;6.30;99.90;;;;;;5086298;28;20464;-70
2023/03/04 01:56:24;;;;;;;7.40;1.80;;;6.30;99.90;;;;;;5083307;28;20471;-70
2023/03/04 01:59:17;;;;;;;6.00;1.60;;;6.30;99.90;;;;;;5081613;28;21776;-70
2023/03/04 02:01:47;;;;;;;4.17;1.30;;;6.30;99.90;;;;;;5058060;27;20880;-70
2023/03/04 02:04:18;;;;;;;5.20;1.53;;;6.30;99.90;;;;;;5079735;27;20472;-70
2023/03/04 02:06:48;;;;;;;5.37;1.93;;;6.30;99.90;;;;;;5085981;27;20483;-70
2023/03/04 02:09:16;;;;;;;3.80;1.30;;;6.30;99.90;;;;;;5084512;27;20498;-70
2023/03/04 02:11:45;;;;;;;3.87;1.40;;;6.30;99.90;;;;;;5081264;27;20487;-69
2023/03/04 02:14:15;;;;;;;4.50;1.60;;;6.30;99.90;;;;;;5075270;27;20475;-70
2023/03/04 02:16:43;;;;;;;5.13;1.60;;;6.30;99.90;;;;;;5085200;27;21023;-70
2023/03/04 02:19:19;;;;;;;5.70;1.87;;;6.30;99.90;;;;;;5081304;28;20459;-71
2023/03/04 02:21:48;;;;;;;5.13;1.60;;;6.30;99.90;;;;;;5087398;27;20487;-70
2023/03/04 02:24:25;;;;;;;8.10;1.90;;;6.30;99.90;;;;;;5084480;27;20475;-70
2023/03/04 02:26:55;;;;;;;6.73;1.77;;;6.40;99.90;;;;;;5081153;28;20495;-70
2023/03/04 02:29:23;;;;;;;2.67;1.50;;;6.40;99.90;;;;;;5077696;27;20495;-70
2023/03/04 02:31:53;;;;;;;4.57;1.70;;;6.40;99.90;;;;;;5086005;27;20492;-70
2023/03/04 02:34:23;;;;;;;5.30;1.63;;;6.40;99.90;;;;;;5084568;27;20466;-70
2023/03/04 02:36:53;;;;;;;5.80;1.60;;;6.40;99.90;;;;;;5085395;27;21029;-69
2023/03/04 02:39:30;;;;;;;5.57;1.70;;;6.30;99.90;;;;;;5081259;27;20792;-70
2023/03/04 02:42:00;;;;;;;5.80;2.00;;;6.40;99.90;;;;;;5085285;27;21078;-70
2023/03/04 02:44:30;;;;;;;6.07;1.77;;;6.40;99.90;;;;;;5081192;28;20475;-70
2023/03/04 02:46:59;;;;;;;4.20;1.60;;;6.40;99.90;;;;;;5079577;28;20476;-70
2023/03/04 02:49:28;;;;;;;5.47;1.87;;;6.30;99.90;;;;;;5088003;28;20499;-70
2023/03/04 02:52:00;;;;;;;5.00;1.70;;;6.30;99.90;;;;;;5086169;28;20503;-70
2023/03/04 02:54:29;;;;;;;4.47;1.67;;;6.30;99.90;;;;;;5079236;27;20476;-71
2023/03/04 02:57:00;;;;;;;8.30;2.27;;;6.30;99.90;;;;;;5079700;28;20495;-70
2023/03/04 02:59:28;;;;;;;5.53;2.00;;;6.30;99.90;;;;;;5080455;28;20460;-70
2023/03/04 03:01:57;;;;;;;8.03;2.10;;;6.40;99.90;;;;;;5082266;28;20820;-69
2023/03/04 03:04:26;;;;;;;6.10;1.80;;;6.40;99.90;;;;;;5084573;27;22349;-70
2023/03/04 03:06:54;;;;;;;3.57;1.83;;;6.40;99.90;;;;;;5092206;28;20484;-70
2023/03/04 03:09:22;;;;;;;3.10;1.90;;;6.40;99.90;;;;;;5084614;27;20948;-70
2023/03/04 03:11:50;;;;;;;5.03;2.50;;;6.30;99.90;;;;;;5078726;28;20483;-70
2023/03/04 03:14:19;;;;;;;4.13;2.27;;;6.30;99.90;;;;;;5084633;27;20517;-70
2023/03/04 03:16:47;;;;;;;7.13;2.57;;;6.30;99.90;;;;;;5097307;27;20484;-69
2023/03/04 03:19:15;;;;;;;4.97;1.80;;;6.40;99.90;;;;;;5089030;27;20468;-69
2023/03/04 03:21:43;;;;;;;6.13;2.40;;;6.40;99.90;;;;;;5087284;28;20491;-69
2023/03/04 03:24:11;;;;;;;8.50;2.10;;;6.30;99.90;;;;;;5084962;28;20474;-70
2023/03/04 03:26:39;;;;;;;4.53;2.00;;;6.40;99.90;;;;;;5081982;28;20485;-70
2023/03/04 03:29:07;;;;;;;5.47;1.90;;;6.30;99.90;;;;;;5083548;28;20483;-70
2023/03/04 03:31:36;;;;;;;5.40;2.00;;;6.30;99.90;;;;;;5088565;28;20506;-69
2023/03/04 03:34:05;;;;;;;4.17;2.07;;;6.30;99.90;;;;;;5085447;27;20572;-70
2023/03/04 03:36:32;;;;;;;4.40;2.40;;;6.40;99.90;;;;;;5082033;28;22070;-69
2023/03/04 03:39:01;;;;;;;6.03;1.80;;;6.40;99.90;;;;;;5085961;28;20464;-70
2023/03/04 03:41:29;;;;;;;7.13;2.10;;;6.40;99.90;;;;;;5083923;27;20484;-70
2023/03/04 03:43:57;;;;;;;6.67;2.07;;;6.40;99.90;;;;;;5080544;28;20472;-70
2023/03/04 03:46:26;;;;;;;3.90;2.17;;;6.40;99.90;;;;;;5086968;28;20472;-70
2023/03/04 03:48:55;;;;;;;5.10;1.83;;;6.40;99.90;;;;;;5087315;28;21835;-70
2023/03/04 03:51:23;;;;;;;4.37;1.70;;;6.40;99.90;;;;;;5086448;28;20498;-69
2023/03/04 03:53:51;;;;;;;4.77;2.00;;;6.30;99.90;;;;;;5085438;28;20471;-71
2023/03/04 03:56:19;;;;;;;4.97;2.30;;;6.30;99.90;;;;;;5083917;28;20817;-69
2023/03/04 03:58:47;;;;;;;8.27;2.03;;;6.30;99.90;;;;;;5083614;28;20475;-70
2023/03/04 04:01:15;;;;;;;5.80;2.07;;;6.30;99.90;;;;;;5082667;28;20491;-71
2023/03/04 04:03:43;;;;;;;6.00;1.97;;;6.30;99.90;;;;;;5084652;28;20468;-71
2023/03/04 04:06:12;;;;;;;5.07;1.90;;;6.30;99.90;;;;;;5087058;28;20469;-70
2023/03/04 04:08:40;;;;;;;6.70;1.77;;;6.30;99.90;;;;;;5084251;28;20483;-70
2023/03/04 04:11:09;;;;;;;11.50;1.80;;;6.30;99.90;;;;;;5081783;27;20517;-70
2023/03/04 04:13:37;;;;;;;6.40;1.93;;;6.40;99.90;;;;;;5087416;28;20486;-71
2023/03/04 04:16:07;;;;;;;4.70;1.90;;;6.40;99.90;;;;;;5087516;28;20476;-70
2023/03/04 04:18:35;;;;;;;4.57;1.83;;;6.40;99.90;;;;;;5085819;28;20556;-71
2023/03/04 04:21:04;;;;;;;6.77;2.40;;;6.40;99.90;;;;;;5088067;28;21086;-70
2023/03/04 04:23:33;;;;;;;9.63;2.33;;;6.30;99.90;;;;;;5076582;28;20501;-70
2023/03/04 04:26:01;;;;;;;8.77;2.30;;;6.40;99.90;;;;;;5083310;28;20486;-70
2023/03/04 04:28:31;;;;;;;3.97;1.90;;;6.40;99.90;;;;;;5080417;28;20483;-69
2023/03/04 04:30:59;;;;;;;9.40;2.93;;;6.30;99.90;;;;;;5083114;28;20491;-70
2023/03/04 04:33:27;;;;;;;5.80;1.90;;;6.40;99.90;;;;;;5086184;28;20468;-70
2023/03/04 04:35:55;;;;;;;7.37;2.40;;;6.40;99.90;;;;;;5088319;28;20924;-70
2023/03/04 04:38:23;;;;;;;9.53;2.67;;;6.40;99.90;;;;;;5083482;28;20479;-70
2023/03/04 04:40:52;;;;;;;5.10;2.20;;;6.40;99.90;;;;;;5084481;28;20482;-70
2023/03/04 04:43:20;;;;;;;9.50;2.03;;;6.40;99.90;;;;;;5084445;28;20479;-70
2023/03/04 04:45:48;;;;;;;6.00;2.00;;;6.40;99.90;;;;;;5083805;28;20471;-70
2023/03/04 04:48:16;;;;;;;4.30;1.83;;;6.40;99.90;;;;;;5080619;28;20497;-70
2023/03/04 04:50:44;;;;;;;8.77;2.87;;;6.40;99.90;;;;;;5085614;28;20507;-70
2023/03/04 04:53:13;;;;;;;6.07;2.23;;;6.40;99.90;;;;;;5084520;28;20486;-70
2023/03/04 04:55:41;;;;;;;7.10;2.73;;;6.40;99.90;;;;;;5093550;28;20468;-71
2023/03/04 04:58:10;;;;;;;8.03;2.50;;;6.40;99.90;;;;;;5087364;28;20509;-70
2023/03/04 05:00:38;;;;;;;5.70;2.03;;;6.40;99.90;;;;;;5082773;27;21263;-70
2023/03/04 05:03:06;;;;;;;4.63;2.10;;;6.40;99.90;;;;;;5088602;28;20456;-70
2023/03/04 05:05:34;;;;;;;7.47;2.17;;;6.40;99.90;;;;;;5089321;28;20497;-70
2023/03/04 05:08:02;;;;;;;5.17;1.80;;;6.40;99.90;;;;;;5086676;28;20546;-69
2023/03/04 05:10:33;;;;;;;7.50;1.90;;;6.50;99.90;;;;;;5083719;28;20970;-70
2023/03/04 05:13:01;;;;;;;9.80;2.27;;;6.50;99.90;;;;;;5088929;28;20471;-70
2023/03/04 05:15:30;;;;;;;5.10;2.40;;;6.40;99.90;;;;;;5079785;27;20568;-70
2023/03/04 05:17:58;;;;;;;7.97;2.43;;;6.40;99.90;;;;;;5084749;28;20487;-70
2023/03/04 05:20:26;;;;;;;4.80;2.00;;;6.40;99.90;;;;;;5082013;27;20487;-70
2023/03/04 05:22:54;;;;;;;6.17;2.53;;;6.40;99.90;;;;;;5089292;27;20465;-70
2023/03/04 05:25:22;;;;;;;7.80;2.00;;;6.40;99.90;;;;;;5084843;28;20459;-70
2023/03/04 05:27:50;;;;;;;5.27;1.93;;;6.40;99.90;;;;;;5084594;27;20513;-70
2023/03/04 05:30:18;;;;;;;4.37;2.07;;;6.40;99.90;;;;;;5079000;28;20498;-70
2023/03/04 05:32:48;;;;;;;6.40;1.87;;;6.30;99.90;;;;;;5086499;27;20464;-70
2023/03/04 05:35:16;;;;;;;5.87;2.13;;;6.30;99.90;;;;;;5089124;28;20478;-69
2023/03/04 05:37:44;;;;;;;8.10;2.30;;;6.30;99.90;;;;;;5084660;27;20489;-69
2023/03/04 05:40:13;;;;;;;6.03;2.40;;;6.30;99.90;;;;;;5074057;27;20482;-70
2023/03/04 05:42:41;;;;;;;7.33;2.13;;;6.30;99.90;;;;;;5088970;28;20467;-70
2023/03/04 05:45:09;;;;;;;4.87;2.67;;;6.30;99.90;;;;;;5070639;27;20468;-70
2023/03/04 05:47:37;;;;;;;5.50;2.10;;;6.30;99.90;;;;;;5085000;27;21762;-70
2023/03/04 05:50:08;;;;;;;5.13;2.53;;;6.30;99.90;;;;;;5088336;27;20475;-70
2023/03/04 05:52:36;;;;;;;7.53;2.33;;;6.30;99.90;;;;;;5091453;28;20636;-70
2023/03/04 05:55:04;;;;;;;9.70;3.63;;;6.30;99.90;;;;;;5095308;28;20470;-71
2023/03/04 05:57:32;;;;;;;6.93;2.87;;;6.30;99.90;;;;;;5088149;28;20519;-70
2023/03/04 06:00:00;;;;;;;9.43;2.70;;;6.30;99.90;;;;;;5084346;27;20576;-71
2023/03/04 06:02:28;;;;;;;10.93;2.90;;;6.30;99.90;;;;;;5089273;27;20558;-71
2023/03/04 06:04:56;;;;;;;7.40;2.50;;;6.20;99.90;;;;;;5086021;28;20475;-70
2023/03/04 06:07:26;;;;;;;7.47;2.83;;;6.20;99.90;;;;;;5086803;28;20487;-71
2023/03/04 06:09:54;;;;;;;9.57;2.80;;;6.20;99.90;;;;;;5087670;28;20506;-70
2023/03/04 06:12:22;;;;;;;11.50;3.27;;;6.20;99.90;;;;;;5083020;27;20530;-71
2023/03/04 06:14:49;;;;;;;9.97;3.27;;;6.20;99.90;;;;;;5082961;27;20492;-70
2023/03/04 06:17:18;;;;;;;13.83;2.83;;;6.20;99.90;;;;;;5080869;27;21046;-71
2023/03/04 06:19:47;;;;;;;14.00;3.50;;;6.20;99.90;;;;;;5082618;27;22099;-71
2023/03/04 06:22:15;;;;;;;11.00;3.60;;;6.20;99.90;;;;;;5081909;28;20491;-71
2023/03/04 06:24:46;;;;;;;13.17;3.27;;;6.10;99.90;;;;;;5085605;27;22033;-70
2023/03/04 06:27:15;;;;;;;10.20;3.07;;;6.10;99.90;;;;;;5091508;28;20495;-70
2023/03/04 06:29:43;;;;;;;10.07;3.00;;;6.10;99.90;;;;;;5086509;28;20475;-70
2023/03/04 06:32:11;;;;;;;11.60;3.47;;;6.00;99.90;;;;;;5080742;27;21006;-70
2023/03/04 06:34:39;;;;;;;13.30;2.70;;;6.00;99.90;;;;;;5087354;28;20562;-70
2023/03/04 06:37:07;;;;;;;8.63;2.70;;;6.00;99.90;;;;;;5078662;27;21022;-70
2023/03/04 06:39:35;;;;;;;10.20;3.00;;;5.90;99.90;;;;;;5084410;27;20475;-70
2023/03/04 06:42:04;;;;;;;9.50;2.80;;;5.90;99.90;;;;;;5092460;28;20484;-70
2023/03/04 06:44:32;;;;;;;10.00;2.30;;;6.00;99.90;;;;;;5081130;27;20478;-69
2023/03/04 06:47:00;;;;;;;12.80;3.23;;;5.90;99.90;;;;;;5082727;27;20500;-69
2023/03/04 06:49:29;;;;;;;9.00;2.47;;;5.90;99.90;;;;;;5076588;28;20475;-70
2023/03/04 06:51:56;;;;;;;11.10;2.63;;;5.80;99.90;;;;;;5078488;28;20483;-71
2023/03/04 06:54:27;;;;;;;9.93;2.53;;;5.90;99.90;;;;;;5087323;28;21005;-70
2023/03/04 06:56:55;;;;;;;11.30;2.73;;;5.90;99.90;;;;;;5091884;28;20480;-70
2023/03/04 06:59:25;;;;;;;6.70;2.00;;;5.90;99.90;;;;;;5086141;28;20475;-69
2023/03/04 07:01:53;;;;;;;8.93;2.30;;;5.90;99.90;;;;;;5082346;28;20503;-70
2023/03/04 07:04:21;;;;;;;8.97;2.43;;;5.90;99.90;;;;;;5071366;27;20472;-69
2023/03/04 07:06:50;;;;;;;7.87;2.73;;;5.80;99.90;;;;;;5085035;28;20918;-70
2023/03/04 07:09:18;;;;;;;9.00;2.10;;;5.80;99.90;;;;;;5074257;27;20475;-70
2023/03/04 07:11:46;;;;;;;9.97;2.40;;;5.80;99.90;;;;;;5079856;27;20488;-70
2023/03/04 07:14:14;;;;;;;11.00;2.67;;;5.80;99.90;;;;;;5079199;28;20537;-70
2023/03/04 07:16:43;;;;;;;9.33;2.37;;;5.80;99.90;;;;;;5096865;27;21015;-70
2023/03/04 07:19:11;;;;;;;8.70;2.20;;;5.80;99.90;;;;;;5076685;28;20464;-71
2023/03/04 07:21:39;;;;;;;9.73;3.20;;;5.80;99.90;;;;;;5081695;28;20498;-70
2023/03/04 07:24:07;;;;;;;5.10;2.00;;;5.80;99.90;;;;;;5082352;27;20479;-71
2023/03/04 07:26:36;;;;;;;7.33;2.70;;;5.90;99.90;;;;;;5074244;27;20530;-71
2023/03/04 07:29:05;;;;;;;7.60;3.20;;;5.80;99.90;;;;;;5080630;27;20471;-71
2023/03/04 07:31:34;;;;;;;12.27;3.53;;;5.90;99.90;;;;;;5085276;28;20491;-70
2023/03/04 07:34:06;;;;;;;8.90;2.70;;;5.90;99.90;;;;;;5078273;27;20699;-71
2023/03/04 07:36:36;;;;;;;7.47;2.13;;;5.80;99.90;;;;;;5094360;28;20483;-70
2023/03/04 07:39:05;;;;;;;7.57;2.63;;;5.80;99.90;;;;;;5079948;27;20472;-71
2023/03/04 07:41:35;;;;;;;10.00;3.33;;;5.90;99.90;;;;;;5073406;28;20488;-71
2023/03/04 07:44:05;;;;;;;7.40;2.53;;;5.90;99.90;;;;;;5072686;27;21018;-71
2023/03/04 07:46:33;;;;;;;10.00;3.07;;;5.90;99.90;;;;;;5063289;27;20430;-71
2023/03/04 07:49:00;;;;;;;11.90;3.10;;;5.90;99.90;;;;;;5084049;28;20460;-71
2023/03/04 07:51:30;;;;;;;12.57;2.80;;;5.90;99.90;;;;;;5086340;28;20498;-71
2023/03/04 07:54:00;;;;;;;11.20;3.83;;;5.90;99.90;;;;;;5087581;28;20497;-70
2023/03/04 07:56:30;;;;;;;7.60;2.80;;;5.90;99.90;;;;;;5079609;28;20510;-70
2023/03/04 07:58:59;;;;;;;10.40;3.20;;;5.90;99.90;;;;;;5079036;28;20471;-70
2023/03/04 08:01:29;;;;;;;9.77;2.60;;;5.90;99.90;;;;;;5083194;28;20499;-69
2023/03/04 08:03:57;;;;;;;13.77;3.17;;;5.90;99.90;;;;;;5081531;28;20472;-70
2023/03/04 08:06:26;;;;;;;15.20;3.40;;;5.90;99.90;;;;;;5079286;28;20490;-69
2023/03/04 08:08:59;;;;;;;12.70;3.20;;;5.90;99.90;;;;;;5084040;28;20490;-69
2023/03/04 08:11:28;;;;;;;8.80;2.37;;;5.90;99.90;;;;;;5067728;28;21190;-70
2023/03/04 08:13:56;;;;;;;8.63;2.83;;;5.90;99.90;;;;;;5075829;27;20501;-70
2023/03/04 08:16:25;;;;;;;8.80;3.03;;;5.90;99.90;;;;;;5076974;28;20471;-69
2023/03/04 08:18:55;;;;;;;9.77;3.40;;;5.90;99.90;;;;;;5080615;28;20486;-69
2023/03/04 08:21:25;;;;;;;6.30;2.50;;;5.90;99.90;;;;;;5083623;28;20484;-70
2023/03/04 08:23:53;;;;;;;9.57;2.90;;;5.90;99.90;;;;;;5083364;28;20464;-69
2023/03/04 08:26:25;;;;;;;14.37;3.13;;;5.90;99.90;;;;;;5078737;28;20486;-69
2023/03/04 08:28:55;;;;;;;16.37;3.33;;;5.90;99.90;;;;;;5074617;28;20482;-70
2023/03/04 08:31:23;;;;;;;10.83;3.33;;;5.90;99.90;;;;;;5083719;28;20492;-70
2023/03/04 08:33:51;;;;;;;7.77;3.00;;;5.90;99.90;;;;;;5089887;28;21586;-70
2023/03/04 08:36:20;;;;;;;10.27;3.23;;;5.90;99.90;;;;;;5082631;28;20467;-71
2023/03/04 08:38:48;;;;;;;10.53;2.97;;;5.90;99.90;;;;;;5074624;28;20474;-69
2023/03/04 08:41:16;;;;;;;11.10;3.30;;;5.90;99.90;;;;;;5064787;28;20503;-70
2023/03/04 08:43:45;;;;;;;12.20;3.40;;;5.90;99.90;;;;;;5074831;28;20452;-70
2023/03/04 08:46:14;;;;;;;11.60;2.77;;;5.90;99.90;;;;;;5062021;28;20464;-69
2023/03/04 08:48:42;;;;;;;12.10;3.43;;;5.90;99.90;;;;;;5060206;28;20464;-70
2023/03/04 08:51:11;;;;;;;12.67;3.43;;;5.90;99.90;;;;;;5070757;28;21829;-70
2023/03/04 08:53:39;;;;;;;8.30;3.17;;;6.00;99.90;;;;;;5077021;28;20485;-70
2023/03/04 08:56:08;;;;;;;10.70;3.10;;;5.90;99.90;;;;;;5075674;28;20460;-70
2023/03/04 08:58:37;;;;;;;11.60;2.80;;;5.90;99.90;;;;;;5068789;28;20498;-70
2023/03/04 09:01:08;;;;;;;13.23;3.73;;;5.90;99.90;;;;;;5071515;28;20875;-70
2023/03/04 09:03:36;;;;;;;9.60;3.00;;;5.90;99.90;;;;;;5085394;28;20464;-70
2023/03/04 09:06:06;;;;;;;10.90;3.63;;;5.90;99.90;;;;;;5078610;28;21058;-70
2023/03/04 09:08:34;;;;;;;17.77;3.50;;;5.90;99.90;;;;;;5074996;28;20494;-70
2023/03/04 09:11:03;;;;;;;13.70;3.80;;;5.90;99.90;;;;;;5069712;28;20495;-70
2023/03/04 09:13:32;;;;;;;12.97;3.50;;;5.90;99.90;;;;;;5078895;28;20488;-71
2023/03/04 09:16:00;;;;;;;13.20;4.53;;;5.90;99.90;;;;;;5075377;28;21128;-70
2023/03/04 09:18:29;;;;;;;10.53;2.90;;;6.00;99.90;;;;;;5072867;28;20487;-70
2023/03/04 09:20:57;;;;;;;10.20;3.83;;;6.00;99.90;;;;;;5076754;28;21171;-70
2023/03/04 09:23:25;;;;;;;12.53;3.83;;;6.10;99.90;;;;;;5073702;28;20491;-70
2023/03/04 09:25:53;;;;;;;9.73;3.67;;;6.00;99.90;;;;;;5072572;28;20480;-70
2023/03/04 09:28:21;;;;;;;10.40;3.40;;;6.00;99.90;;;;;;5077150;28;20488;-70
2023/03/04 09:30:49;;;;;;;8.90;2.83;;;6.00;99.90;;;;;;5075048;28;20706;-70
2023/03/04 09:33:18;;;;;;;13.83;4.40;;;6.00;99.90;;;;;;5078442;28;20511;-70
2023/03/04 09:35:48;;;;;;;12.73;3.10;;;6.00;99.90;;;;;;5089766;28;20499;-70
2023/03/04 09:38:16;;;;;;;12.73;3.30;;;6.00;99.90;;;;;;5078664;28;20495;-71
2023/03/04 09:40:47;;;;;;;11.63;3.00;;;5.90;99.90;;;;;;5082186;28;20494;-70
2023/03/04 09:43:21;;;;;;;8.00;2.83;;;5.90;99.90;;;;;;5077505;28;20901;-70
2023/03/04 09:45:52;;;;;;;12.77;3.43;;;6.00;99.90;;;;;;5065259;27;20852;-70
2023/03/04 09:48:23;;;;;;;11.10;3.23;;;6.00;99.90;;;;;;5080979;27;20483;-70
2023/03/04 09:51:12;;;;;;;11.77;3.67;;;6.00;99.90;;;;;;5084503;28;20568;-70
2023/03/04 09:53:49;;;;;;;11.40;3.10;;;6.10;99.90;;;;;;5079606;27;20521;-70
2023/03/04 09:56:17;;;;;;;13.70;3.40;;;6.00;99.90;;;;;;5082876;28;20482;-69
2023/03/04 09:58:57;;;;;;;10.83;3.37;;;6.00;99.90;;;;;;5084174;28;21070;-71
2023/03/04 10:01:31;;;;;;;13.83;5.40;;;6.10;99.90;;;;;;5078764;28;20492;-69
2023/03/04 10:04:05;;;;;;;10.37;3.03;;;6.10;99.90;;;;;;5083177;27;20463;-70
2023/03/04 10:06:34;;;;;;;9.70;2.90;;;6.10;99.90;;;;;;5087546;28;20476;-70
2023/03/04 10:09:05;;;;;;;13.50;4.87;;;6.10;99.90;;;;;;5087423;27;20494;-69
2023/03/04 10:11:38;;;;;;;10.00;3.50;;;6.10;99.90;;;;;;5097984;27;21075;-70
2023/03/04 10:14:28;;;;;;;8.63;3.37;;;6.10;99.90;;;;;;5084423;28;20495;-70
2023/03/04 10:17:00;;;;;;;13.07;3.63;;;6.20;99.90;;;;;;5087313;28;20487;-70
2023/03/04 10:19:34;;;;;;;13.53;5.40;;;6.20;99.90;;;;;;5087893;28;20464;-70
2023/03/04 10:22:16;;;;;;;11.40;3.27;;;6.20;99.90;;;;;;5088956;28;20476;-70
2023/03/04 10:24:46;;;;;;;9.70;3.10;;;6.20;99.90;;;;;;5081267;28;20759;-70
2023/03/04 10:27:18;;;;;;;13.90;3.13;;;6.20;99.90;;;;;;5083322;28;20488;-70
2023/03/04 10:29:46;;;;;;;13.00;3.87;;;6.30;99.90;;;;;;5089200;27;23194;-70
2023/03/04 10:32:17;;;;;;;12.90;2.60;;;6.30;99.90;;;;;;5086143;27;21563;-70
2023/03/04 10:34:46;;;;;;;8.30;3.20;;;6.30;99.90;;;;;;5087241;28;20494;-70
2023/03/04 10:37:15;;;;;;;14.33;3.50;;;6.40;99.90;;;;;;5096795;27;20488;-70
2023/03/04 10:39:45;;;;;;;9.87;3.10;;;6.40;99.90;;;;;;5085098;27;20479;-71
2023/03/04 10:42:35;;;;;;;10.27;2.87;;;6.40;99.90;;;;;;5082698;27;20490;-71
2023/03/04 10:45:19;;;;;;;9.50;3.30;;;6.40;99.90;;;;;;5090979;28;20571;-70
2023/03/04 10:47:53;;;;;;;11.67;3.80;;;6.50;99.90;;;;;;5082501;27;21026;-69
2023/03/04 10:50:26;;;;;;;10.90;4.00;;;6.50;99.90;;;;;;5088577;27;20595;-70
2023/03/04 10:52:56;;;;;;;10.40;3.00;;;6.50;99.90;;;;;;5098533;27;20870;-70
2023/03/04 10:55:27;;;;;;;11.87;3.40;;;6.50;99.90;;;;;;5089300;28;20481;-69
2023/03/04 10:58:01;;;;;;;11.33;3.23;;;6.50;99.90;;;;;;5097328;27;20489;-70
2023/03/04 11:00:32;;;;;;;12.03;3.67;;;6.50;99.90;;;;;;5083297;28;20542;-70
2023/03/04 11:03:31;;;;;;;14.13;3.17;;;6.50;99.90;;;;;;5085534;27;20478;-69
2023/03/04 11:06:21;;;;;;;15.27;4.00;;;6.50;99.90;;;;;;5085140;28;20472;-69
2023/03/04 11:08:58;;;;;;;7.33;2.70;;;6.60;99.90;;;;;;5082411;28;20833;-69
2023/03/04 11:11:33;;;;;;;11.30;3.13;;;6.60;99.90;;;;;;5086261;28;20494;-70
2023/03/04 11:14:08;;;;;;;11.23;3.87;;;6.60;99.90;;;;;;5084901;28;21021;-69
2023/03/04 11:16:36;;;;;;;9.53;3.03;;;6.60;99.90;;;;;;5083927;27;20501;-70
2023/03/04 11:19:11;;;;;;;8.23;2.93;;;6.60;99.90;;;;;;5086626;28;21083;-69
2023/03/04 11:21:41;;;;;;;8.73;3.00;;;6.70;99.90;;;;;;5083634;28;20495;-70
2023/03/04 11:24:14;;;;;;;14.33;4.20;;;6.80;99.90;;;;;;5088385;28;20497;-70
2023/03/04 11:27:01;;;;;;;8.17;2.90;;;6.90;99.90;;;;;;5097211;28;20504;-70
2023/03/04 11:29:32;;;;;;;11.00;3.17;;;6.80;99.90;;;;;;5091669;27;20485;-70
2023/03/04 11:32:07;;;;;;;8.83;3.23;;;6.90;99.90;;;;;;5095618;27;20487;-70
2023/03/04 11:34:40;;;;;;;10.33;3.63;;;6.90;99.90;;;;;;5096108;27;20551;-70
2023/03/04 11:37:14;;;;;;;10.37;2.97;;;6.90;99.90;;;;;;5091320;27;20567;-70
2023/03/04 11:39:48;;;;;;;9.10;2.70;;;6.90;99.90;;;;;;5092495;27;20570;-70
2023/03/04 11:42:25;;;;;;;9.43;3.57;;;6.90;99.90;;;;;;5086756;28;22300;-70
2023/03/04 11:44:54;;;;;;;12.30;3.17;;;6.90;99.90;;;;;;5081159;28;20510;-70
2023/03/04 11:47:43;;;;;;;8.03;3.43;;;6.90;99.90;;;;;;5081449;28;20496;-70
2023/03/04 11:50:22;;;;;;;12.27;3.40;;;7.00;99.90;;;;;;5095401;28;20468;-70
2023/03/04 11:53:19;;;;;;;12.50;3.13;;;7.00;99.90;;;;;;5084485;28;20993;-69
2023/03/04 11:55:55;;;;;;;9.60;2.80;;;7.00;99.90;;;;;;5080207;28;20494;-70
2023/03/04 11:58:44;;;;;;;9.57;3.07;;;7.10;99.90;;;;;;5096871;27;20528;-69
2023/03/04 12:01:17;;;;;;;10.10;2.90;;;7.10;99.90;;;;;;5084637;27;20503;-70
2023/03/04 12:04:02;;;;;;;11.57;3.00;;;7.20;99.90;;;;;;5082307;28;21002;-70
2023/03/04 12:06:37;;;;;;;6.27;3.17;;;7.20;99.90;;;;;;5096587;27;20974;-70
2023/03/04 12:09:30;;;;;;;9.60;2.77;;;7.20;99.90;;;;;;5089559;28;20464;-70
2023/03/04 12:12:11;;;;;;;8.30;2.93;;;7.20;99.90;;;;;;5087258;27;20499;-71
2023/03/04 12:14:45;;;;;;;8.80;3.10;;;7.20;99.90;;;;;;5093260;28;21361;-69
2023/03/04 12:17:36;;;;;;;10.30;3.30;;;7.20;99.90;;;;;;5105789;28;20492;-69
2023/03/04 12:20:33;;;;;;;11.40;3.50;;;7.20;99.90;;;;;;5081071;28;20468;-69
2023/03/04 12:23:10;;;;;;;13.50;3.20;;;7.20;99.90;;;;;;5097960;28;20483;-70
2023/03/04 12:25:42;;;;;;;12.83;2.90;;;7.20;99.90;;;;;;5080393;28;20456;-70
2023/03/04 12:28:26;;;;;;;11.23;3.17;;;7.20;99.90;;;;;;5084784;28;20494;-70
2023/03/04 12:31:16;;;;;;;12.10;4.30;;;7.20;99.90;;;;;;5077431;28;20570;-70
2023/03/04 12:33:58;;;;;;;12.33;3.77;;;7.30;99.90;;;;;;5072277;28;20464;-70
2023/03/04 12:36:35;;;;;;;11.60;3.20;;;7.40;99.90;;;;;;5084190;28;20476;-70
2023/03/04 12:39:20;;;;;;;11.23;3.30;;;7.30;99.90;;;;;;5082539;28;21447;-70
2023/03/04 12:41:58;;;;;;;6.77;2.67;;;7.30;99.90;;;;;;5081133;28;20487;-70
2023/03/04 12:44:31;;;;;;;13.43;3.80;;;7.20;99.90;;;;;;5084839;28;20476;-70
2023/03/04 12:47:18;;;;;;;12.67;3.50;;;7.10;99.90;;;;;;5082952;28;20498;-70
2023/03/04 12:49:59;;;;;;;9.77;3.50;;;7.10;99.90;;;;;;5086899;28;20469;-70
2023/03/04 12:52:41;;;;;;;8.23;2.67;;;7.40;99.90;;;;;;5080692;28;20468;-70
2023/03/04 12:55:12;;;;;;;5.33;2.33;;;10.50;99.90;;;;;;5079417;28;20484;-70
2023/03/04 12:57:41;;;;;;;9.17;2.40;;;14.20;73.60;;;;;;5080026;28;21190;-70
2023/03/04 13:00:25;;;;;;;7.07;2.60;;;16.20;57.10;;;;;;5081957;28;22452;-70
2023/03/04 13:03:08;;;;;;;7.10;2.57;;;16.50;51.00;;;;;;5085526;28;20467;-70
2023/03/04 13:06:02;;;;;;;8.33;2.70;;;15.30;50.70;;;;;;5081861;28;20988;-67
2023/03/04 13:08:39;;;;;;;6.77;3.20;;;13.20;61.20;;;;;;5079808;28;20574;-67
2023/03/04 13:11:41;;;;;;;9.73;3.07;;;11.90;75.50;;;;;;5078494;28;20498;-68